createdAt,value
2022-10-17T00:01:30.783Z,101333.44
2022-10-17T00:03:57.073Z,101335.09
2022-10-17T00:06:23.349Z,101334.09
2022-10-17T00:08:50.965Z,101323.41
2022-10-17T00:11:18.527Z,101324.91
2022-10-17T00:13:45.252Z,101338.13
2022-10-17T00:16:12.060Z,101326.59
2022-10-17T00:18:38.503Z,101329.28
2022-10-17T00:21:05.144Z,101325.75
2022-10-17T00:23:31.483Z,101324.91
2022-10-17T00:26:00.237Z,101327.44
2022-10-17T00:28:26.572Z,101325.44
2022-10-17T00:30:56.047Z,101315.38
2022-10-17T00:33:22.330Z,101319.72
2022-10-17T00:35:48.634Z,101320.44
2022-10-17T00:38:14.911Z,101322.78
2022-10-17T00:40:41.213Z,101319.09
2022-10-17T00:43:15.230Z,101322.59
2022-10-17T00:45:41.498Z,101313.59
2022-10-17T00:48:09.261Z,101309.06
2022-10-17T00:50:36.545Z,101311.75
2022-10-17T00:53:04.509Z,101315.06
2022-10-17T00:55:31.673Z,101307.88
2022-10-17T00:58:00.553Z,101316.72
2022-10-17T01:00:28.244Z,101311.38
2022-10-17T01:02:54.559Z,101310.56
2022-10-17T01:05:21.277Z,101313.91
2022-10-17T01:07:48.972Z,101315.72
2022-10-17T01:10:15.540Z,101315.72
2022-10-17T01:12:48.573Z,101313.22
2022-10-17T01:15:21.742Z,101315.91
2022-10-17T01:17:56.661Z,101315.06
2022-10-17T01:20:40.747Z,101307.03
2022-10-17T01:23:15.822Z,101300.91
2022-10-17T01:25:50.211Z,101311.38
2022-10-17T01:28:20.790Z,101306.03
2022-10-17T01:30:55.637Z,101308.06
2022-10-17T01:33:27.592Z,101304.56
2022-10-17T01:35:57.374Z,101309.06
2022-10-17T01:38:28.917Z,101309.91
2022-10-17T01:40:59.283Z,101313.44
2022-10-17T01:43:29.324Z,101310.75
2022-10-17T01:45:59.427Z,101303.91
2022-10-17T01:48:28.383Z,101308.56
2022-10-17T01:50:58.528Z,101298.88
2022-10-17T01:53:28.766Z,101297.03
2022-10-17T01:58:28.003Z,101296.88
2022-10-17T02:00:55.551Z,101300.38
2022-10-17T02:03:24.324Z,101289.03
2022-10-17T02:05:50.685Z,101291.69
2022-10-17T02:08:24.765Z,101290.69
2022-10-17T02:10:55.013Z,101285.53
2022-10-17T02:13:27.750Z,101286.34
2022-10-17T02:16:07.797Z,101277.66
2022-10-17T02:18:46.874Z,101279.34
2022-10-17T02:21:16.675Z,101276.78
2022-10-17T02:23:47.442Z,101276.97
2022-10-17T02:26:17.721Z,101280.63
2022-10-17T02:28:47.234Z,101276.31
2022-10-17T02:31:15.157Z,101271.16
2022-10-17T02:33:44.963Z,101264.13
2022-10-17T02:36:13.745Z,101269.47
2022-10-17T02:38:40.602Z,101273.97
2022-10-17T02:41:09.382Z,101273.97
2022-10-17T02:43:36.930Z,101261.63
2022-10-17T02:46:03.563Z,101283.00
2022-10-17T02:48:34.828Z,101277.50
2022-10-17T02:51:05.185Z,101280.16
2022-10-17T02:53:34.383Z,101275.66
2022-10-17T02:56:04.717Z,101278.31
2022-10-17T02:58:32.103Z,101274.81
2022-10-17T03:00:58.824Z,101283.00
2022-10-17T03:03:25.825Z,101272.31
2022-10-17T03:05:52.533Z,101276.81
2022-10-17T03:08:20.361Z,101278.31
2022-10-17T03:10:46.710Z,101275.97
2022-10-17T03:13:13.035Z,101279.34
2022-10-17T03:15:39.312Z,101285.34
2022-10-17T03:18:05.608Z,101284.34
2022-10-17T03:20:32.011Z,101295.72
2022-10-17T03:22:58.389Z,101290.00
2022-10-17T03:25:26.065Z,101286.31
2022-10-17T03:27:52.446Z,101292.34
2022-10-17T03:30:18.756Z,101299.19
2022-10-17T03:32:45.040Z,101300.03
2022-10-17T03:35:15.067Z,101296.00
2022-10-17T03:37:41.542Z,101304.84
2022-10-17T03:40:08.145Z,101299.50
2022-10-17T03:42:35.849Z,101295.00
2022-10-17T03:45:02.172Z,101288.63
2022-10-17T03:47:28.775Z,101300.16
2022-10-17T03:49:55.244Z,101296.50
2022-10-17T03:52:21.548Z,101297.34
2022-10-17T03:54:49.156Z,101293.66
2022-10-17T03:57:15.427Z,101297.00
2022-10-17T03:59:43.085Z,101306.03
2022-10-17T04:02:09.384Z,101314.72
2022-10-17T04:04:35.674Z,101322.56
2022-10-17T04:07:02.112Z,101311.50
2022-10-17T04:09:28.409Z,101312.00
2022-10-17T04:11:54.704Z,101317.34
2022-10-17T04:14:21.061Z,101310.00
2022-10-17T04:16:48.708Z,101325.72
2022-10-17T04:19:15.013Z,101323.69
2022-10-17T04:21:41.319Z,101320.66
2022-10-17T04:24:10.004Z,101326.53
2022-10-17T04:26:36.417Z,101327.34
2022-10-17T04:29:02.733Z,101322.00
2022-10-17T04:31:29.048Z,101315.44
2022-10-17T04:33:56.753Z,101329.50
2022-10-17T04:36:23.109Z,101318.63
2022-10-17T04:38:49.417Z,101320.28
2022-10-17T04:41:17.110Z,101305.91
2022-10-17T04:43:45.637Z,101314.09
2022-10-17T04:46:15.428Z,101312.94
2022-10-17T04:48:42.273Z,101321.78
2022-10-17T04:51:11.968Z,101325.13
2022-10-17T04:53:38.901Z,101320.78
2022-10-17T04:56:08.646Z,101325.78
2022-10-17T04:58:34.946Z,101323.09
2022-10-17T05:01:04.182Z,101336.69
2022-10-17T05:03:30.532Z,101346.88
2022-10-17T05:05:56.811Z,101343.53
2022-10-17T05:08:24.430Z,101352.72
2022-10-17T05:10:50.772Z,101340.56
2022-10-17T05:13:17.116Z,101347.75
2022-10-17T05:15:43.551Z,101350.59
2022-10-17T05:18:09.822Z,101355.44
2022-10-17T05:20:36.148Z,101340.41
2022-10-17T05:23:02.441Z,101339.38
2022-10-17T05:25:30.124Z,101342.91
2022-10-17T05:27:56.403Z,101347.75
2022-10-17T05:30:22.701Z,101345.72
2022-10-17T05:32:51.577Z,101350.06
2022-10-17T05:35:17.861Z,101344.53
2022-10-17T05:37:44.151Z,101348.38
2022-10-17T05:40:10.962Z,101354.19
2022-10-17T05:45:09.965Z,101360.88
2022-10-17T05:47:36.267Z,101353.69
2022-10-17T05:50:02.566Z,101367.75
2022-10-17T05:52:29.014Z,101366.75
2022-10-17T05:54:55.462Z,101365.91
2022-10-17T05:57:24.221Z,101366.75
2022-10-17T05:59:51.852Z,101362.84
2022-10-17T06:02:18.250Z,101368.41
2022-10-17T06:04:44.642Z,101373.09
2022-10-17T06:07:10.962Z,101375.09
2022-10-17T06:09:37.354Z,101381.63
2022-10-17T06:12:03.677Z,101382.47
2022-10-17T06:14:29.963Z,101381.47
2022-10-17T06:16:57.659Z,101384.81
2022-10-17T06:19:23.954Z,101389.81
2022-10-17T06:21:50.257Z,101382.44
2022-10-17T06:24:16.536Z,101392.13
2022-10-17T06:26:43.288Z,101394.63
2022-10-17T06:29:09.705Z,101396.16
2022-10-17T06:31:36.109Z,101402.16
2022-10-17T06:34:03.809Z,101392.97
2022-10-17T06:36:30.086Z,101386.06
2022-10-17T06:38:56.361Z,101385.56
2022-10-17T06:41:22.653Z,101386.03
2022-10-17T06:43:48.933Z,101387.34
2022-10-17T06:46:16.150Z,101390.31
2022-10-17T06:48:42.716Z,101404.03
2022-10-17T06:51:10.664Z,101401.88
2022-10-17T06:53:37.573Z,101404.41
2022-10-17T06:56:04.058Z,101417.41
2022-10-17T06:58:30.644Z,101406.19
2022-10-17T07:01:00.977Z,101405.00
2022-10-17T07:03:27.768Z,101404.63
2022-10-17T07:05:54.417Z,101398.94
2022-10-17T07:08:22.068Z,101391.41
2022-10-17T07:10:48.469Z,101395.56
2022-10-17T07:13:14.836Z,101403.91
2022-10-17T07:15:41.592Z,101412.44
2022-10-17T07:18:07.864Z,101426.50
2022-10-17T07:20:34.212Z,101423.59
2022-10-17T07:23:00.513Z,101431.31
2022-10-17T07:25:28.453Z,101444.34
2022-10-17T07:27:54.754Z,101443.63
2022-10-17T07:30:21.570Z,101441.94
2022-10-17T07:32:47.857Z,101443.22
2022-10-17T07:35:14.836Z,101453.09
2022-10-17T07:37:41.121Z,101453.84
2022-10-17T07:40:08.242Z,101456.66
2022-10-17T07:45:09.403Z,101470.13
2022-10-17T07:47:35.713Z,101484.28
2022-10-17T07:50:02.036Z,101488.78
2022-10-17T07:52:28.555Z,101495.78
2022-10-17T07:54:55.009Z,101497.19
2022-10-17T07:57:21.268Z,101496.56
2022-10-17T07:59:48.923Z,101513.44
2022-10-17T08:02:20.280Z,101520.22
2022-10-17T08:04:46.573Z,101522.44
2022-10-17T08:07:20.967Z,101535.59
2022-10-17T08:09:50.576Z,101535.88
2022-10-17T08:12:17.256Z,101545.72
2022-10-17T08:14:43.602Z,101541.44
2022-10-17T08:17:11.393Z,101553.19
2022-10-17T08:19:38.221Z,101541.50
2022-10-17T08:22:04.699Z,101551.47
2022-10-17T08:24:30.999Z,101559.84
2022-10-17T08:26:57.295Z,101567.06
2022-10-17T08:29:23.867Z,101562.53
2022-10-17T08:31:54.093Z,101569.75
2022-10-17T08:34:26.216Z,101580.88
2022-10-17T08:36:52.483Z,101586.91
2022-10-17T08:39:18.784Z,101592.44
2022-10-17T08:41:59.554Z,101595.78
2022-10-17T08:44:33.244Z,101599.97
2022-10-17T08:47:01.659Z,101604.78
2022-10-17T08:49:38.217Z,101613.13
2022-10-17T08:52:07.110Z,101616.66
2022-10-17T08:54:38.606Z,101619.59
2022-10-17T08:57:04.947Z,101623.31
2022-10-17T08:59:31.270Z,101614.22
2022-10-17T09:02:01.157Z,101605.53
2022-10-17T09:04:43.242Z,101609.06
2022-10-17T09:07:14.915Z,101621.00
2022-10-17T09:09:48.324Z,101622.22
2022-10-17T09:12:17.364Z,101626.94
2022-10-17T09:15:00.017Z,101637.88
2022-10-17T09:17:32.986Z,101647.16
2022-10-17T09:20:03.667Z,101666.34
2022-10-17T09:22:33.716Z,101671.06
2022-10-17T09:25:02.373Z,101674.94
2022-10-17T09:27:34.069Z,101681.88
2022-10-17T09:30:21.362Z,101657.03
2022-10-17T09:32:58.681Z,101654.72
2022-10-17T09:35:27.476Z,101642.69
2022-10-17T09:37:54.157Z,101627.06
2022-10-17T09:40:23.808Z,101616.69
2022-10-17T09:42:50.248Z,101619.09
2022-10-17T09:45:17.847Z,101610.56
2022-10-17T09:47:47.025Z,101618.97
2022-10-17T09:50:16.043Z,101629.06
2022-10-17T09:52:44.094Z,101631.09
2022-10-17T09:55:16.943Z,101628.59
2022-10-17T09:57:54.095Z,101642.38
2022-10-17T10:00:21.799Z,101644.59
2022-10-17T10:02:48.111Z,101662.75
2022-10-17T10:05:16.066Z,101663.94
2022-10-17T10:07:45.417Z,101659.75
2022-10-17T10:10:23.404Z,101668.81
2022-10-17T10:13:02.333Z,101662.78
2022-10-17T10:15:33.603Z,101670.19
2022-10-17T10:17:59.926Z,101668.72
2022-10-17T10:20:28.685Z,101682.31
2022-10-17T10:23:16.417Z,101680.81
2022-10-17T10:25:49.652Z,101680.16
2022-10-17T10:28:17.069Z,101678.69
2022-10-17T10:30:47.314Z,101683.41
2022-10-17T10:33:13.718Z,101675.53
2022-10-17T10:35:40.021Z,101674.69
2022-10-17T10:38:10.635Z,101674.69
2022-10-17T10:40:44.192Z,101662.94
2022-10-17T10:43:18.468Z,101652.84
2022-10-17T10:45:48.991Z,101658.69
2022-10-17T10:48:19.300Z,101675.28
2022-10-17T10:50:47.090Z,101689.38
2022-10-17T10:53:23.272Z,101706.16
2022-10-17T10:55:51.064Z,101708.63
2022-10-17T10:58:23.843Z,101710.28
2022-10-17T11:00:50.651Z,101695.84
2022-10-17T11:03:20.861Z,101705.41
2022-10-17T11:05:49.585Z,101706.06
2022-10-17T11:08:21.405Z,101708.22
2022-10-17T11:10:53.556Z,101718.78
2022-10-17T11:13:22.073Z,101727.84
2022-10-17T11:15:52.707Z,101725.16
2022-10-17T11:18:22.271Z,101726.16
2022-10-17T11:20:52.620Z,101725.16
2022-10-17T11:23:27.810Z,101746.47
2022-10-17T11:25:55.109Z,101752.69
2022-10-17T11:28:22.951Z,101749.81
2022-10-17T11:30:51.419Z,101760.22
2022-10-17T11:33:20.227Z,101755.50
2022-10-17T11:35:49.093Z,101760.31
2022-10-17T11:38:18.400Z,101753.75
2022-10-17T11:40:49.103Z,101756.09
2022-10-17T11:43:18.595Z,101771.00
2022-10-17T11:45:47.313Z,101769.16
2022-10-17T11:48:17.056Z,101763.78
2022-10-17T11:53:37.491Z,101772.69
2022-10-17T11:56:05.677Z,101778.88
2022-10-17T11:58:35.793Z,101771.00
2022-10-17T12:01:07.258Z,101777.22
2022-10-17T12:03:40.145Z,101759.06
2022-10-17T12:06:12.480Z,101776.69
2022-10-17T12:08:42.656Z,101772.66
2022-10-17T12:11:14.883Z,101776.00
2022-10-17T12:13:56.058Z,101775.81
2022-10-17T12:16:38.992Z,101783.69
2022-10-17T12:19:26.644Z,101797.81
2022-10-17T12:21:56.954Z,101794.28
2022-10-17T12:24:31.131Z,101801.50
2022-10-17T12:27:18.749Z,101800.50
2022-10-17T12:29:45.076Z,101799.47
2022-10-17T12:32:11.978Z,101803.84
2022-10-17T12:34:38.760Z,101797.28
2022-10-17T12:37:05.066Z,101808.47
2022-10-17T12:39:49.277Z,101811.84
2022-10-17T12:42:30.785Z,101818.03
2022-10-17T12:44:57.253Z,101817.03
2022-10-17T12:47:28.105Z,101820.38
2022-10-17T12:49:56.697Z,101811.94
2022-10-17T12:52:24.841Z,101804.72
2022-10-17T12:55:13.093Z,101817.97
2022-10-17T12:57:43.707Z,101818.47
2022-10-17T13:00:15.827Z,101810.41
2022-10-17T13:02:42.259Z,101821.47
2022-10-17T13:05:12.486Z,101824.78
2022-10-17T13:07:41.179Z,101837.22
2022-10-17T13:10:08.069Z,101826.28
2022-10-17T13:12:41.132Z,101822.56
2022-10-17T13:15:16.324Z,101842.22
2022-10-17T13:17:43.831Z,101858.38
2022-10-17T13:20:27.557Z,101867.63
2022-10-17T13:22:57.448Z,101871.50
2022-10-17T13:25:24.753Z,101873.56
2022-10-17T13:27:51.198Z,101863.63
2022-10-17T13:30:24.764Z,101858.44
2022-10-17T13:32:53.490Z,101870.19
2022-10-17T13:35:31.709Z,101877.25
2022-10-17T13:38:08.613Z,101873.06
2022-10-17T13:40:49.083Z,101877.59
2022-10-17T13:43:18.696Z,101884.16
2022-10-17T13:45:50.209Z,101875.44
2022-10-17T13:48:19.216Z,101881.03
2022-10-17T13:50:47.145Z,101883.88
2022-10-17T13:53:16.333Z,101883.03
2022-10-17T13:56:09.776Z,101886.75
2022-10-17T13:58:43.295Z,101893.13
2022-10-17T14:01:11.992Z,101905.06
2022-10-17T14:03:48.169Z,101910.44
2022-10-17T14:06:17.025Z,101920.34
2022-10-17T14:08:54.717Z,101920.34
2022-10-17T14:11:26.246Z,101924.06
2022-10-17T14:13:53.380Z,101920.53
2022-10-17T14:16:21.574Z,101936.84
2022-10-17T14:18:49.319Z,101940.19
2022-10-17T14:21:43.927Z,101944.53
2022-10-17T14:24:13.069Z,101946.41
2022-10-17T14:26:46.968Z,101952.63
2022-10-17T14:29:20.412Z,101951.78
2022-10-17T14:31:48.120Z,101956.13
2022-10-17T14:34:20.006Z,101960.34
2022-10-17T14:36:48.698Z,101961.16
2022-10-17T14:39:18.742Z,101955.63
2022-10-17T14:41:45.846Z,101958.97
2022-10-17T14:44:33.262Z,101960.44
2022-10-17T14:47:18.197Z,101950.72
2022-10-17T14:49:50.599Z,101949.03
2022-10-17T14:52:27.583Z,101951.94
2022-10-17T14:54:54.162Z,101946.72
2022-10-17T14:57:22.739Z,101943.53
2022-10-17T14:59:54.302Z,101946.56
2022-10-17T15:02:22.954Z,101948.63
2022-10-17T15:04:49.245Z,101944.44
2022-10-17T15:07:16.165Z,101942.91
2022-10-17T15:09:42.955Z,101958.22
2022-10-17T15:12:13.638Z,101963.94
2022-10-17T15:14:39.913Z,101976.69
2022-10-17T15:17:09.880Z,101988.66
2022-10-17T15:19:37.508Z,101996.88
2022-10-17T15:22:03.776Z,102010.47
2022-10-17T15:24:30.077Z,102008.78
2022-10-17T15:26:56.402Z,102012.47
2022-10-17T15:29:22.702Z,102015.34
2022-10-17T15:31:48.980Z,102012.81
2022-10-17T15:34:15.256Z,102011.16
2022-10-17T15:36:48.432Z,102014.84
2022-10-17T15:39:14.700Z,102020.22
2022-10-17T15:41:41.007Z,102017.72
2022-10-17T15:44:07.294Z,102023.94
2022-10-17T15:46:34.585Z,102013.34
2022-10-17T15:49:01.934Z,102010.66
2022-10-17T15:51:28.238Z,102011.84
2022-10-17T15:53:55.882Z,102020.91
2022-10-17T15:56:23.463Z,102023.94
2022-10-17T15:58:50.189Z,102029.31
2022-10-17T16:01:19.996Z,102025.97
2022-10-17T16:03:46.325Z,102035.22
2022-10-17T16:06:14.244Z,102037.22
2022-10-17T16:08:40.763Z,102027.66
2022-10-17T16:11:10.256Z,102037.72
2022-10-17T16:13:37.579Z,102030.03
2022-10-17T16:16:03.933Z,102028.53
2022-10-17T16:18:30.225Z,102031.53
2022-10-17T16:20:56.563Z,102039.75
2022-10-17T16:23:22.866Z,102041.81
2022-10-17T16:25:49.153Z,102038.44
2022-10-17T16:28:16.801Z,102040.44
2022-10-17T16:30:43.620Z,102034.56
2022-10-17T16:33:10.374Z,102043.63
2022-10-17T16:35:37.650Z,102043.00
2022-10-17T16:38:04.274Z,102053.91
2022-10-17T16:40:30.575Z,102057.59
2022-10-17T16:42:56.916Z,102052.38
2022-10-17T16:45:24.556Z,102058.91
2022-10-17T16:47:50.875Z,102058.25
2022-10-17T16:50:17.275Z,102048.72
2022-10-17T16:52:43.554Z,102039.13
2022-10-17T16:55:09.940Z,102051.88
2022-10-17T16:57:36.437Z,102052.88
2022-10-17T17:00:03.092Z,102052.03
2022-10-17T17:02:30.889Z,102059.41
2022-10-17T17:04:57.391Z,102061.44
2022-10-17T17:07:23.710Z,102062.47
2022-10-17T17:09:50.003Z,102064.47
2022-10-17T17:12:16.304Z,102077.22
2022-10-17T17:14:42.606Z,102074.69
2022-10-17T17:17:15.399Z,102083.75
2022-10-17T17:19:52.249Z,102075.00
2022-10-17T17:22:18.543Z,102081.56
2022-10-17T17:24:44.835Z,102080.75
2022-10-17T17:27:13.441Z,102090.78
2022-10-17T17:29:39.995Z,102106.06
2022-10-17T17:32:06.301Z,102100.84
2022-10-17T17:34:35.511Z,102103.69
2022-10-17T17:37:03.229Z,102104.69
2022-10-17T17:39:29.530Z,102110.22
2022-10-17T17:41:55.822Z,102113.25
2022-10-17T17:44:22.429Z,102109.72
2022-10-17T17:46:48.740Z,102110.91
2022-10-17T17:49:15.050Z,102113.75
2022-10-17T17:51:41.421Z,102113.88
2022-10-17T17:54:09.236Z,102114.69
2022-10-17T17:56:35.545Z,102114.69
2022-10-17T17:59:02.349Z,102112.19
2022-10-17T18:01:29.499Z,102116.88
2022-10-17T18:03:56.478Z,102114.38
2022-10-17T18:06:23.129Z,102119.91
2022-10-17T18:08:50.428Z,102135.16
2022-10-17T18:11:21.150Z,102136.31
2022-10-17T18:13:52.500Z,102142.84
2022-10-17T18:16:18.817Z,102143.00
2022-10-17T18:18:45.305Z,102147.53
2022-10-17T18:21:12.434Z,102142.16
2022-10-17T18:23:38.816Z,102141.31
2022-10-17T18:26:05.746Z,102142.16
2022-10-17T18:28:34.998Z,102150.38
2022-10-17T18:31:04.534Z,102149.72
2022-10-17T18:33:30.828Z,102155.75
2022-10-17T18:35:58.384Z,102153.22
2022-10-17T18:38:24.762Z,102157.75
2022-10-17T18:41:01.260Z,102163.97
2022-10-17T18:43:27.730Z,102157.91
2022-10-17T18:46:00.959Z,102154.38
2022-10-17T18:48:27.242Z,102152.72
2022-10-17T18:50:53.528Z,102153.53
2022-10-17T18:53:19.834Z,102153.72
2022-10-17T18:58:17.341Z,102164.75
2022-10-17T19:00:43.612Z,102163.06
2022-10-17T19:03:11.276Z,102164.09
2022-10-17T19:05:38.127Z,102157.03
2022-10-17T19:08:04.648Z,102160.72
2022-10-17T19:10:31.982Z,102161.88
2022-10-17T19:12:58.315Z,102163.03
2022-10-17T19:15:25.965Z,102161.34
2022-10-17T19:17:52.578Z,102164.19
2022-10-17T19:20:20.183Z,102165.22
2022-10-17T19:22:46.511Z,102175.09
2022-10-17T19:25:12.862Z,102167.38
2022-10-17T19:27:39.165Z,102167.38
2022-10-17T19:30:06.063Z,102163.00
2022-10-17T19:32:34.298Z,102162.16
2022-10-17T19:35:00.851Z,102160.47
2022-10-17T19:37:30.022Z,102164.00
2022-10-17T19:39:56.451Z,102159.78
2022-10-17T19:42:22.721Z,102170.69
2022-10-17T19:44:48.997Z,102175.19
2022-10-17T19:47:15.288Z,102177.88
2022-10-17T19:49:42.899Z,102179.91
2022-10-17T19:52:10.707Z,102176.38
2022-10-17T19:54:38.669Z,102176.38
2022-10-17T19:57:09.505Z,102178.22
2022-10-17T19:59:36.844Z,102183.72
2022-10-17T20:02:03.192Z,102185.56
2022-10-17T20:04:29.669Z,102186.56
2022-10-17T20:06:56.017Z,102185.88
2022-10-17T20:09:22.441Z,102182.34
2022-10-17T20:11:50.213Z,102185.38
2022-10-17T20:14:16.528Z,102188.06
2022-10-17T20:16:42.822Z,102182.84
2022-10-17T20:19:11.642Z,102198.09
2022-10-17T20:21:38.177Z,102198.09
2022-10-17T20:24:05.573Z,102194.72
2022-10-17T20:26:38.244Z,102200.25
2022-10-17T20:29:08.033Z,102193.19
2022-10-17T20:31:34.500Z,102200.41
2022-10-17T20:34:00.818Z,102197.88
2022-10-17T20:36:27.129Z,102202.38
2022-10-17T20:38:53.631Z,102203.22
2022-10-17T20:41:19.900Z,102206.91
2022-10-17T20:43:46.248Z,102196.38
2022-10-17T20:46:29.411Z,102196.38
2022-10-17T20:49:01.705Z,102192.00
2022-10-17T20:51:27.982Z,102192.16
2022-10-17T20:53:54.328Z,102191.31
2022-10-17T20:56:21.507Z,102188.09
2022-10-17T20:58:51.634Z,102196.28
2022-10-17T21:01:19.703Z,102194.59
2022-10-17T21:03:46.761Z,102202.00
2022-10-17T21:06:13.811Z,102198.63
2022-10-17T21:08:40.121Z,102211.19
2022-10-17T21:11:07.013Z,102211.31
2022-10-17T21:13:33.324Z,102203.28
2022-10-17T21:16:03.810Z,102208.81
2022-10-17T21:18:31.435Z,102208.94
2022-10-17T21:21:06.093Z,102217.00
2022-10-17T21:23:32.402Z,102216.16
2022-10-17T21:25:58.970Z,102210.94
2022-10-17T21:28:25.355Z,102218.13
2022-10-17T21:30:51.664Z,102214.63
2022-10-17T21:33:17.937Z,102218.31
2022-10-17T21:35:45.577Z,102214.25
2022-10-17T21:38:11.863Z,102214.25
2022-10-17T21:40:38.164Z,102220.59
2022-10-17T21:43:04.461Z,102223.28
2022-10-17T21:45:30.751Z,102222.59
2022-10-17T21:48:13.257Z,102224.56
2022-10-17T21:50:39.971Z,102225.56
2022-10-17T21:53:07.653Z,102228.44
2022-10-17T21:55:35.502Z,102235.78
2022-10-17T21:58:01.787Z,102233.50
2022-10-17T22:00:28.109Z,102242.53
2022-10-17T22:02:54.416Z,102244.38
2022-10-17T22:05:20.704Z,102253.59
2022-10-17T22:07:47.472Z,102256.56
2022-10-17T22:10:15.224Z,102256.00
2022-10-17T22:12:41.492Z,102259.00
2022-10-17T22:15:08.328Z,102258.00
2022-10-17T22:17:34.648Z,102262.50
2022-10-17T22:20:00.943Z,102258.16
2022-10-17T22:22:27.250Z,102270.72
2022-10-17T22:24:53.548Z,102262.84
2022-10-17T22:27:21.162Z,102259.31
2022-10-17T22:29:47.458Z,102264.81
2022-10-17T22:32:16.346Z,102268.47
2022-10-17T22:34:44.864Z,102271.31
2022-10-17T22:37:11.155Z,102273.16
2022-10-17T22:39:37.437Z,102276.81
2022-10-17T22:42:03.823Z,102283.31
2022-10-17T22:44:31.444Z,102273.75
2022-10-17T22:46:57.735Z,102274.91
2022-10-17T22:49:24.056Z,102270.53
2022-10-17T22:51:50.356Z,102276.03
2022-10-17T22:54:16.712Z,102270.69
2022-10-17T22:56:43.007Z,102276.88
2022-10-17T22:59:09.324Z,102283.22
2022-10-17T23:01:37.014Z,102280.56
2022-10-17T23:04:03.356Z,102274.34
2022-10-17T23:06:29.653Z,102277.03
2022-10-17T23:08:55.919Z,102280.69
2022-10-17T23:11:22.215Z,102277.03
2022-10-17T23:13:48.529Z,102282.38
2022-10-17T23:16:14.840Z,102279.84
2022-10-17T23:18:42.481Z,102288.72
2022-10-17T23:21:08.826Z,102279.00
2022-10-17T23:23:35.123Z,102273.84
2022-10-17T23:26:05.596Z,102277.50
2022-10-17T23:28:32.010Z,102273.13
2022-10-17T23:30:58.355Z,102272.81
2022-10-17T23:33:24.645Z,102267.31
2022-10-17T23:35:52.276Z,102269.00
2022-10-17T23:38:18.592Z,102262.66
2022-10-17T23:40:44.872Z,102276.88
2022-10-17T23:43:11.167Z,102266.03
2022-10-17T23:45:37.572Z,102272.22
2022-10-17T23:48:04.428Z,102272.09
2022-10-17T23:50:30.716Z,102272.09
2022-10-17T23:52:58.336Z,102272.09
2022-10-17T23:55:24.657Z,102272.94
2022-10-17T23:57:50.952Z,102263.06
